sensor_id;sensor_type;location;lat;lon;timestamp;P1;durP1;ratioP1;P2;durP2;ratioP2
74523;SDS011;63074;44.696;10.358;2022-10-20T00:00:24;16.40;;;9.43;;
74523;SDS011;63074;44.696;10.358;2022-10-20T00:02:49;16.08;;;10.95;;
74523;SDS011;63074;44.696;10.358;2022-10-20T00:05:14;17.58;;;9.00;;
74523;SDS011;63074;44.696;10.358;2022-10-20T00:07:40;15.88;;;9.32;;
74523;SDS011;63074;44.696;10.358;2022-10-20T00:10:05;15.93;;;9.73;;
74523;SDS011;63074;44.696;10.358;2022-10-20T00:12:31;13.38;;;8.73;;
74523;SDS011;63074;44.696;10.358;2022-10-20T00:14:56;14.77;;;8.68;;
74523;SDS011;63074;44.696;10.358;2022-10-20T00:17:22;15.85;;;9.38;;
74523;SDS011;63074;44.696;10.358;2022-10-20T00:19:47;15.15;;;9.23;;
74523;SDS011;63074;44.696;10.358;2022-10-20T00:22:13;15.70;;;10.40;;
74523;SDS011;63074;44.696;10.358;2022-10-20T00:24:38;14.23;;;9.05;;
74523;SDS011;63074;44.696;10.358;2022-10-20T00:27:04;15.00;;;10.50;;
74523;SDS011;63074;44.696;10.358;2022-10-20T00:29:29;15.60;;;9.85;;
74523;SDS011;63074;44.696;10.358;2022-10-20T00:31:55;16.38;;;9.00;;
74523;SDS011;63074;44.696;10.358;2022-10-20T00:34:20;14.32;;;9.05;;
74523;SDS011;63074;44.696;10.358;2022-10-20T00:36:46;14.60;;;8.60;;
74523;SDS011;63074;44.696;10.358;2022-10-20T00:39:11;16.77;;;10.60;;
74523;SDS011;63074;44.696;10.358;2022-10-20T00:41:36;15.10;;;10.48;;
74523;SDS011;63074;44.696;10.358;2022-10-20T00:44:44;18.42;;;10.88;;
74523;SDS011;63074;44.696;10.358;2022-10-20T00:47:08;14.27;;;8.45;;
74523;SDS011;63074;44.696;10.358;2022-10-20T00:49:38;15.77;;;9.30;;
74523;SDS011;63074;44.696;10.358;2022-10-20T00:52:04;14.45;;;10.18;;
74523;SDS011;63074;44.696;10.358;2022-10-20T00:54:30;16.63;;;9.60;;
74523;SDS011;63074;44.696;10.358;2022-10-20T00:56:56;16.42;;;9.45;;
74523;SDS011;63074;44.696;10.358;2022-10-20T00:59:27;18.70;;;9.90;;
74523;SDS011;63074;44.696;10.358;2022-10-20T01:01:55;17.67;;;10.48;;
74523;SDS011;63074;44.696;10.358;2022-10-20T01:04:23;16.55;;;9.10;;
74523;SDS011;63074;44.696;10.358;2022-10-20T01:06:51;16.02;;;9.57;;
74523;SDS011;63074;44.696;10.358;2022-10-20T01:09:17;17.98;;;9.77;;
74523;SDS011;63074;44.696;10.358;2022-10-20T01:22:46;15.85;;;9.40;;
74523;SDS011;63074;44.696;10.358;2022-10-20T01:31:02;16.52;;;9.65;;
74523;SDS011;63074;44.696;10.358;2022-10-20T01:33:43;17.13;;;9.57;;
74523;SDS011;63074;44.696;10.358;2022-10-20T01:36:31;19.48;;;11.07;;
74523;SDS011;63074;44.696;10.358;2022-10-20T01:39:09;18.52;;;10.55;;
74523;SDS011;63074;44.696;10.358;2022-10-20T01:41:43;17.02;;;11.10;;
74523;SDS011;63074;44.696;10.358;2022-10-20T01:44:19;18.60;;;11.80;;
74523;SDS011;63074;44.696;10.358;2022-10-20T01:46:49;19.23;;;10.43;;
74523;SDS011;63074;44.696;10.358;2022-10-20T01:49:15;17.23;;;11.35;;
74523;SDS011;63074;44.696;10.358;2022-10-20T01:51:41;20.65;;;10.40;;
74523;SDS011;63074;44.696;10.358;2022-10-20T01:54:17;16.63;;;10.52;;
74523;SDS011;63074;44.696;10.358;2022-10-20T01:59:56;16.90;;;11.05;;
74523;SDS011;63074;44.696;10.358;2022-10-20T02:07:33;15.57;;;9.57;;
74523;SDS011;63074;44.696;10.358;2022-10-20T02:10:11;16.10;;;9.88;;
74523;SDS011;63074;44.696;10.358;2022-10-20T02:12:51;14.07;;;9.32;;
74523;SDS011;63074;44.696;10.358;2022-10-20T02:15:22;14.38;;;9.25;;
74523;SDS011;63074;44.696;10.358;2022-10-20T02:17:51;17.05;;;9.68;;
74523;SDS011;63074;44.696;10.358;2022-10-20T02:20:21;13.68;;;9.00;;
74523;SDS011;63074;44.696;10.358;2022-10-20T02:22:47;12.40;;;9.18;;
74523;SDS011;63074;44.696;10.358;2022-10-20T02:25:13;13.95;;;10.23;;
74523;SDS011;63074;44.696;10.358;2022-10-20T02:27:40;14.40;;;9.55;;
74523;SDS011;63074;44.696;10.358;2022-10-20T02:30:11;13.10;;;8.95;;
74523;SDS011;63074;44.696;10.358;2022-10-20T02:35:06;13.88;;;8.23;;
74523;SDS011;63074;44.696;10.358;2022-10-20T02:37:41;14.05;;;8.60;;
74523;SDS011;63074;44.696;10.358;2022-10-20T02:40:07;14.05;;;8.13;;
74523;SDS011;63074;44.696;10.358;2022-10-20T02:42:33;14.85;;;8.43;;
74523;SDS011;63074;44.696;10.358;2022-10-20T02:44:59;15.05;;;9.65;;
74523;SDS011;63074;44.696;10.358;2022-10-20T02:47:25;12.57;;;7.85;;
74523;SDS011;63074;44.696;10.358;2022-10-20T02:49:50;13.60;;;7.88;;
74523;SDS011;63074;44.696;10.358;2022-10-20T02:52:16;16.30;;;8.18;;
74523;SDS011;63074;44.696;10.358;2022-10-20T02:54:41;14.13;;;9.40;;
74523;SDS011;63074;44.696;10.358;2022-10-20T02:57:06;16.27;;;8.45;;
74523;SDS011;63074;44.696;10.358;2022-10-20T02:59:32;15.50;;;8.35;;
74523;SDS011;63074;44.696;10.358;2022-10-20T03:01:57;12.82;;;7.55;;
74523;SDS011;63074;44.696;10.358;2022-10-20T03:04:23;14.55;;;8.80;;
74523;SDS011;63074;44.696;10.358;2022-10-20T03:06:49;15.00;;;9.18;;
74523;SDS011;63074;44.696;10.358;2022-10-20T03:09:15;15.32;;;8.00;;
74523;SDS011;63074;44.696;10.358;2022-10-20T03:11:41;13.90;;;8.45;;
74523;SDS011;63074;44.696;10.358;2022-10-20T03:14:07;13.70;;;7.97;;
74523;SDS011;63074;44.696;10.358;2022-10-20T03:16:32;16.02;;;8.52;;
74523;SDS011;63074;44.696;10.358;2022-10-20T03:18:58;14.70;;;8.32;;
74523;SDS011;63074;44.696;10.358;2022-10-20T03:21:23;14.73;;;9.90;;
74523;SDS011;63074;44.696;10.358;2022-10-20T03:23:49;13.05;;;9.00;;
74523;SDS011;63074;44.696;10.358;2022-10-20T03:26:14;12.93;;;7.85;;
74523;SDS011;63074;44.696;10.358;2022-10-20T03:28:39;13.30;;;9.02;;
74523;SDS011;63074;44.696;10.358;2022-10-20T03:31:05;13.07;;;8.18;;
74523;SDS011;63074;44.696;10.358;2022-10-20T03:33:31;14.98;;;9.73;;
74523;SDS011;63074;44.696;10.358;2022-10-20T03:35:57;16.42;;;8.27;;
74523;SDS011;63074;44.696;10.358;2022-10-20T03:38:23;14.68;;;9.95;;
74523;SDS011;63074;44.696;10.358;2022-10-20T03:40:48;14.40;;;8.80;;
74523;SDS011;63074;44.696;10.358;2022-10-20T03:43:14;17.70;;;9.07;;
74523;SDS011;63074;44.696;10.358;2022-10-20T03:45:42;17.17;;;9.75;;
74523;SDS011;63074;44.696;10.358;2022-10-20T03:48:09;21.35;;;11.15;;
74523;SDS011;63074;44.696;10.358;2022-10-20T03:50:38;19.42;;;10.48;;
74523;SDS011;63074;44.696;10.358;2022-10-20T03:53:07;15.43;;;11.23;;
74523;SDS011;63074;44.696;10.358;2022-10-20T03:55:36;17.08;;;10.15;;
74523;SDS011;63074;44.696;10.358;2022-10-20T03:58:02;18.73;;;10.00;;
74523;SDS011;63074;44.696;10.358;2022-10-20T04:00:27;16.77;;;9.57;;
74523;SDS011;63074;44.696;10.358;2022-10-20T04:02:53;17.60;;;11.07;;
74523;SDS011;63074;44.696;10.358;2022-10-20T04:05:19;15.98;;;9.57;;
74523;SDS011;63074;44.696;10.358;2022-10-20T04:07:45;16.23;;;9.65;;
74523;SDS011;63074;44.696;10.358;2022-10-20T04:10:12;18.65;;;11.52;;
74523;SDS011;63074;44.696;10.358;2022-10-20T04:12:41;17.50;;;9.90;;
74523;SDS011;63074;44.696;10.358;2022-10-20T04:15:07;17.50;;;10.65;;
74523;SDS011;63074;44.696;10.358;2022-10-20T04:17:33;19.17;;;11.73;;
74523;SDS011;63074;44.696;10.358;2022-10-20T04:20:01;16.65;;;11.32;;
74523;SDS011;63074;44.696;10.358;2022-10-20T04:22:26;16.10;;;9.55;;
74523;SDS011;63074;44.696;10.358;2022-10-20T04:24:52;19.55;;;11.75;;
74523;SDS011;63074;44.696;10.358;2022-10-20T04:27:17;19.35;;;11.18;;
74523;SDS011;63074;44.696;10.358;2022-10-20T04:29:43;18.52;;;9.75;;
74523;SDS011;63074;44.696;10.358;2022-10-20T04:32:08;16.83;;;10.07;;
74523;SDS011;63074;44.696;10.358;2022-10-20T04:34:33;18.65;;;11.63;;
74523;SDS011;63074;44.696;10.358;2022-10-20T04:37:00;16.75;;;10.13;;
74523;SDS011;63074;44.696;10.358;2022-10-20T04:39:26;18.42;;;12.73;;
74523;SDS011;63074;44.696;10.358;2022-10-20T04:41:51;17.05;;;12.02;;
74523;SDS011;63074;44.696;10.358;2022-10-20T04:44:16;20.33;;;12.15;;
74523;SDS011;63074;44.696;10.358;2022-10-20T04:46:42;18.17;;;11.07;;
74523;SDS011;63074;44.696;10.358;2022-10-20T04:49:08;19.65;;;11.60;;
74523;SDS011;63074;44.696;10.358;2022-10-20T04:51:33;20.33;;;11.93;;
74523;SDS011;63074;44.696;10.358;2022-10-20T04:53:58;20.50;;;10.32;;
74523;SDS011;63074;44.696;10.358;2022-10-20T04:56:24;15.88;;;10.48;;
74523;SDS011;63074;44.696;10.358;2022-10-20T04:58:50;18.52;;;10.77;;
74523;SDS011;63074;44.696;10.358;2022-10-20T05:01:17;20.40;;;13.48;;
74523;SDS011;63074;44.696;10.358;2022-10-20T05:03:44;18.58;;;12.43;;
74523;SDS011;63074;44.696;10.358;2022-10-20T05:06:16;19.17;;;13.40;;
74523;SDS011;63074;44.696;10.358;2022-10-20T05:08:46;20.83;;;12.68;;
74523;SDS011;63074;44.696;10.358;2022-10-20T05:11:14;22.58;;;14.43;;
74523;SDS011;63074;44.696;10.358;2022-10-20T05:13:40;21.33;;;12.80;;
74523;SDS011;63074;44.696;10.358;2022-10-20T05:16:06;25.90;;;13.35;;
74523;SDS011;63074;44.696;10.358;2022-10-20T05:18:33;20.80;;;12.68;;
74523;SDS011;63074;44.696;10.358;2022-10-20T05:21:03;23.00;;;13.10;;
74523;SDS011;63074;44.696;10.358;2022-10-20T05:23:30;23.52;;;14.23;;
74523;SDS011;63074;44.696;10.358;2022-10-20T05:25:55;21.38;;;12.02;;
74523;SDS011;63074;44.696;10.358;2022-10-20T05:28:20;23.98;;;13.32;;
74523;SDS011;63074;44.696;10.358;2022-10-20T05:30:46;22.42;;;12.70;;
74523;SDS011;63074;44.696;10.358;2022-10-20T05:33:11;23.77;;;14.82;;
74523;SDS011;63074;44.696;10.358;2022-10-20T05:35:37;23.58;;;12.30;;
74523;SDS011;63074;44.696;10.358;2022-10-20T05:38:02;24.52;;;13.23;;
74523;SDS011;63074;44.696;10.358;2022-10-20T05:40:28;23.38;;;12.43;;
74523;SDS011;63074;44.696;10.358;2022-10-20T05:42:53;20.48;;;12.90;;
74523;SDS011;63074;44.696;10.358;2022-10-20T05:45:18;22.08;;;12.02;;
74523;SDS011;63074;44.696;10.358;2022-10-20T05:47:44;20.98;;;11.88;;
74523;SDS011;63074;44.696;10.358;2022-10-20T05:50:09;19.55;;;12.63;;
74523;SDS011;63074;44.696;10.358;2022-10-20T05:52:35;18.23;;;11.13;;
74523;SDS011;63074;44.696;10.358;2022-10-20T05:55:01;20.13;;;11.60;;
74523;SDS011;63074;44.696;10.358;2022-10-20T05:57:28;17.02;;;10.98;;
74523;SDS011;63074;44.696;10.358;2022-10-20T05:59:53;18.08;;;10.98;;
74523;SDS011;63074;44.696;10.358;2022-10-20T06:02:18;18.75;;;10.40;;
74523;SDS011;63074;44.696;10.358;2022-10-20T06:04:44;17.02;;;10.68;;
74523;SDS011;63074;44.696;10.358;2022-10-20T06:07:10;23.63;;;11.05;;
74523;SDS011;63074;44.696;10.358;2022-10-20T06:09:36;17.70;;;10.77;;
74523;SDS011;63074;44.696;10.358;2022-10-20T06:12:03;21.70;;;11.65;;
74523;SDS011;63074;44.696;10.358;2022-10-20T06:14:29;17.67;;;11.25;;
74523;SDS011;63074;44.696;10.358;2022-10-20T06:16:55;19.95;;;10.93;;
74523;SDS011;63074;44.696;10.358;2022-10-20T06:19:21;18.25;;;10.88;;
74523;SDS011;63074;44.696;10.358;2022-10-20T06:21:48;21.35;;;11.27;;
74523;SDS011;63074;44.696;10.358;2022-10-20T06:24:14;19.33;;;11.65;;
74523;SDS011;63074;44.696;10.358;2022-10-20T06:26:41;19.13;;;11.48;;
74523;SDS011;63074;44.696;10.358;2022-10-20T06:29:09;20.42;;;11.98;;
74523;SDS011;63074;44.696;10.358;2022-10-20T06:31:37;19.48;;;10.23;;
74523;SDS011;63074;44.696;10.358;2022-10-20T06:34:09;20.38;;;12.23;;
74523;SDS011;63074;44.696;10.358;2022-10-20T06:36:37;20.15;;;11.38;;
74523;SDS011;63074;44.696;10.358;2022-10-20T06:39:04;19.05;;;11.43;;
74523;SDS011;63074;44.696;10.358;2022-10-20T06:41:31;17.98;;;11.85;;
74523;SDS011;63074;44.696;10.358;2022-10-20T06:43:57;18.45;;;11.98;;
74523;SDS011;63074;44.696;10.358;2022-10-20T06:46:24;18.23;;;11.70;;
74523;SDS011;63074;44.696;10.358;2022-10-20T06:48:51;20.80;;;12.05;;
74523;SDS011;63074;44.696;10.358;2022-10-20T06:51:17;21.30;;;11.48;;
74523;SDS011;63074;44.696;10.358;2022-10-20T06:53:45;16.42;;;11.27;;
74523;SDS011;63074;44.696;10.358;2022-10-20T06:56:22;16.92;;;11.52;;
74523;SDS011;63074;44.696;10.358;2022-10-20T06:58:49;19.30;;;11.05;;
74523;SDS011;63074;44.696;10.358;2022-10-20T07:01:23;19.58;;;9.43;;
74523;SDS011;63074;44.696;10.358;2022-10-20T07:03:51;19.67;;;10.80;;
74523;SDS011;63074;44.696;10.358;2022-10-20T07:06:30;18.55;;;11.55;;
74523;SDS011;63074;44.696;10.358;2022-10-20T07:08:57;16.63;;;8.85;;
74523;SDS011;63074;44.696;10.358;2022-10-20T07:11:25;18.45;;;10.55;;
74523;SDS011;63074;44.696;10.358;2022-10-20T07:13:52;16.65;;;10.02;;
74523;SDS011;63074;44.696;10.358;2022-10-20T07:16:20;18.05;;;8.90;;
74523;SDS011;63074;44.696;10.358;2022-10-20T07:18:48;18.70;;;11.10;;
74523;SDS011;63074;44.696;10.358;2022-10-20T07:21:15;17.67;;;12.07;;
74523;SDS011;63074;44.696;10.358;2022-10-20T07:23:42;18.77;;;12.13;;
74523;SDS011;63074;44.696;10.358;2022-10-20T07:26:12;18.40;;;11.02;;
74523;SDS011;63074;44.696;10.358;2022-10-20T07:28:43;19.67;;;11.15;;
74523;SDS011;63074;44.696;10.358;2022-10-20T07:31:17;19.95;;;12.43;;
74523;SDS011;63074;44.696;10.358;2022-10-20T07:33:44;20.27;;;12.18;;
74523;SDS011;63074;44.696;10.358;2022-10-20T07:36:13;20.65;;;12.20;;
74523;SDS011;63074;44.696;10.358;2022-10-20T07:38:41;20.08;;;13.15;;
74523;SDS011;63074;44.696;10.358;2022-10-20T07:41:07;19.50;;;12.70;;
74523;SDS011;63074;44.696;10.358;2022-10-20T07:43:34;24.55;;;12.50;;
74523;SDS011;63074;44.696;10.358;2022-10-20T07:45:59;26.15;;;13.38;;
74523;SDS011;63074;44.696;10.358;2022-10-20T07:48:25;24.83;;;13.20;;
74523;SDS011;63074;44.696;10.358;2022-10-20T07:50:50;22.45;;;13.32;;
74523;SDS011;63074;44.696;10.358;2022-10-20T07:53:16;22.65;;;13.25;;
74523;SDS011;63074;44.696;10.358;2022-10-20T07:55:41;24.67;;;14.38;;
74523;SDS011;63074;44.696;10.358;2022-10-20T07:58:07;34.53;;;17.15;;
74523;SDS011;63074;44.696;10.358;2022-10-20T08:00:32;27.40;;;15.18;;
74523;SDS011;63074;44.696;10.358;2022-10-20T08:02:57;28.80;;;17.02;;
74523;SDS011;63074;44.696;10.358;2022-10-20T08:05:23;32.38;;;16.33;;
74523;SDS011;63074;44.696;10.358;2022-10-20T08:07:48;30.08;;;15.27;;
74523;SDS011;63074;44.696;10.358;2022-10-20T08:10:14;26.63;;;16.85;;
74523;SDS011;63074;44.696;10.358;2022-10-20T08:12:39;31.63;;;17.45;;
74523;SDS011;63074;44.696;10.358;2022-10-20T08:15:05;31.65;;;17.48;;
74523;SDS011;63074;44.696;10.358;2022-10-20T08:17:30;30.90;;;18.88;;
74523;SDS011;63074;44.696;10.358;2022-10-20T08:19:56;34.38;;;17.67;;
74523;SDS011;63074;44.696;10.358;2022-10-20T08:22:21;39.88;;;18.55;;
74523;SDS011;63074;44.696;10.358;2022-10-20T08:24:47;34.67;;;19.67;;
74523;SDS011;63074;44.696;10.358;2022-10-20T08:27:12;33.10;;;18.10;;
74523;SDS011;63074;44.696;10.358;2022-10-20T08:29:38;32.33;;;18.50;;
74523;SDS011;63074;44.696;10.358;2022-10-20T08:32:03;37.78;;;17.05;;
74523;SDS011;63074;44.696;10.358;2022-10-20T08:34:29;29.85;;;17.83;;
74523;SDS011;63074;44.696;10.358;2022-10-20T08:36:55;29.15;;;16.02;;
74523;SDS011;63074;44.696;10.358;2022-10-20T08:39:20;27.23;;;16.73;;
74523;SDS011;63074;44.696;10.358;2022-10-20T08:41:46;29.00;;;16.90;;
74523;SDS011;63074;44.696;10.358;2022-10-20T08:44:36;27.40;;;14.45;;
74523;SDS011;63074;44.696;10.358;2022-10-20T08:47:02;27.92;;;16.33;;
74523;SDS011;63074;44.696;10.358;2022-10-20T08:49:31;28.27;;;16.50;;
74523;SDS011;63074;44.696;10.358;2022-10-20T08:51:59;27.80;;;16.58;;
74523;SDS011;63074;44.696;10.358;2022-10-20T08:54:25;31.27;;;18.02;;
74523;SDS011;63074;44.696;10.358;2022-10-20T08:56:50;34.35;;;19.30;;
74523;SDS011;63074;44.696;10.358;2022-10-20T08:59:22;40.22;;;20.00;;
74523;SDS011;63074;44.696;10.358;2022-10-20T09:01:52;37.72;;;19.98;;
74523;SDS011;63074;44.696;10.358;2022-10-20T09:04:19;42.83;;;20.38;;
74523;SDS011;63074;44.696;10.358;2022-10-20T09:06:53;44.22;;;26.00;;
74523;SDS011;63074;44.696;10.358;2022-10-20T09:09:23;52.15;;;25.85;;
74523;SDS011;63074;44.696;10.358;2022-10-20T09:11:49;50.88;;;26.90;;
74523;SDS011;63074;44.696;10.358;2022-10-20T09:14:15;52.70;;;27.95;;
74523;SDS011;63074;44.696;10.358;2022-10-20T09:16:41;59.40;;;31.48;;
74523;SDS011;63074;44.696;10.358;2022-10-20T09:21:47;56.95;;;31.30;;
74523;SDS011;63074;44.696;10.358;2022-10-20T09:24:16;59.00;;;33.40;;
74523;SDS011;63074;44.696;10.358;2022-10-20T09:26:45;65.43;;;36.47;;
74523;SDS011;63074;44.696;10.358;2022-10-20T09:29:14;71.63;;;35.05;;
74523;SDS011;63074;44.696;10.358;2022-10-20T09:31:52;72.60;;;43.20;;
74523;SDS011;63074;44.696;10.358;2022-10-20T09:34:26;85.95;;;45.03;;
74523;SDS011;63074;44.696;10.358;2022-10-20T09:36:54;88.70;;;42.53;;
74523;SDS011;63074;44.696;10.358;2022-10-20T09:42:14;83.53;;;46.22;;
74523;SDS011;63074;44.696;10.358;2022-10-20T09:44:46;83.55;;;44.05;;
74523;SDS011;63074;44.696;10.358;2022-10-20T09:47:13;84.20;;;40.70;;
74523;SDS011;63074;44.696;10.358;2022-10-20T09:49:41;85.53;;;44.05;;
74523;SDS011;63074;44.696;10.358;2022-10-20T09:52:51;80.43;;;40.95;;
74523;SDS011;63074;44.696;10.358;2022-10-20T09:55:07;81.47;;;41.08;;
74523;SDS011;63074;44.696;10.358;2022-10-20T09:57:47;85.53;;;41.53;;
74523;SDS011;63074;44.696;10.358;2022-10-20T10:00:26;90.00;;;48.75;;
74523;SDS011;63074;44.696;10.358;2022-10-20T10:03:08;94.53;;;47.35;;
74523;SDS011;63074;44.696;10.358;2022-10-20T10:05:38;92.22;;;45.28;;
74523;SDS011;63074;44.696;10.358;2022-10-20T10:08:10;84.65;;;42.10;;
74523;SDS011;63074;44.696;10.358;2022-10-20T10:10:38;87.38;;;49.28;;
74523;SDS011;63074;44.696;10.358;2022-10-20T10:13:03;89.40;;;45.97;;
74523;SDS011;63074;44.696;10.358;2022-10-20T10:15:31;89.45;;;45.33;;
74523;SDS011;63074;44.696;10.358;2022-10-20T10:17:58;83.00;;;44.03;;
74523;SDS011;63074;44.696;10.358;2022-10-20T10:20:35;88.90;;;47.22;;
74523;SDS011;63074;44.696;10.358;2022-10-20T10:25:44;92.53;;;48.03;;
74523;SDS011;63074;44.696;10.358;2022-10-20T10:28:20;81.57;;;44.08;;
74523;SDS011;63074;44.696;10.358;2022-10-20T10:33:41;77.45;;;40.28;;
74523;SDS011;63074;44.696;10.358;2022-10-20T10:36:11;78.25;;;43.35;;
74523;SDS011;63074;44.696;10.358;2022-10-20T10:38:45;80.65;;;40.58;;
74523;SDS011;63074;44.696;10.358;2022-10-20T10:46:47;82.85;;;39.95;;
74523;SDS011;63074;44.696;10.358;2022-10-20T10:59:54;80.78;;;42.67;;
74523;SDS011;63074;44.696;10.358;2022-10-20T11:05:20;79.68;;;43.53;;
74523;SDS011;63074;44.696;10.358;2022-10-20T11:07:49;75.00;;;44.10;;
74523;SDS011;63074;44.696;10.358;2022-10-20T11:16:19;77.47;;;41.17;;
74523;SDS011;63074;44.696;10.358;2022-10-20T11:26:44;91.32;;;49.28;;
74523;SDS011;63074;44.696;10.358;2022-10-20T11:32:02;96.68;;;48.35;;
74523;SDS011;63074;44.696;10.358;2022-10-20T11:37:23;90.18;;;47.83;;
74523;SDS011;63074;44.696;10.358;2022-10-20T11:47:48;91.05;;;44.85;;
74523;SDS011;63074;44.696;10.358;2022-10-20T11:50:18;95.50;;;48.65;;
74523;SDS011;63074;44.696;10.358;2022-10-20T11:55:47;88.07;;;43.88;;
74523;SDS011;63074;44.696;10.358;2022-10-20T12:01:08;80.15;;;44.70;;
74523;SDS011;63074;44.696;10.358;2022-10-20T12:07:29;91.72;;;42.30;;
74523;SDS011;63074;44.696;10.358;2022-10-20T12:15:27;86.68;;;42.17;;
74523;SDS011;63074;44.696;10.358;2022-10-20T12:17:53;86.78;;;47.13;;
74523;SDS011;63074;44.696;10.358;2022-10-20T12:22:48;86.85;;;47.25;;
74523;SDS011;63074;44.696;10.358;2022-10-20T12:30:52;90.32;;;44.00;;
74523;SDS011;63074;44.696;10.358;2022-10-20T12:38:44;83.15;;;44.08;;
74523;SDS011;63074;44.696;10.358;2022-10-20T12:44:03;84.47;;;43.65;;
74523;SDS011;63074;44.696;10.358;2022-10-20T12:46:31;77.05;;;39.85;;
74523;SDS011;63074;44.696;10.358;2022-10-20T12:49:01;83.15;;;42.72;;
74523;SDS011;63074;44.696;10.358;2022-10-20T12:54:05;88.88;;;47.80;;
74523;SDS011;63074;44.696;10.358;2022-10-20T12:56:41;89.95;;;43.70;;
74523;SDS011;63074;44.696;10.358;2022-10-20T13:15:47;89.80;;;44.72;;
74523;SDS011;63074;44.696;10.358;2022-10-20T13:18:26;88.45;;;43.72;;
74523;SDS011;63074;44.696;10.358;2022-10-20T13:23:25;93.43;;;42.38;;
74523;SDS011;63074;44.696;10.358;2022-10-20T13:26:19;88.90;;;46.42;;
74523;SDS011;63074;44.696;10.358;2022-10-20T13:28:47;83.05;;;46.92;;
74523;SDS011;63074;44.696;10.358;2022-10-20T13:31:19;87.47;;;43.70;;
74523;SDS011;63074;44.696;10.358;2022-10-20T13:37:04;86.00;;;46.92;;
74523;SDS011;63074;44.696;10.358;2022-10-20T13:47:46;94.80;;;45.03;;
74523;SDS011;63074;44.696;10.358;2022-10-20T13:53:02;89.60;;;48.53;;
74523;SDS011;63074;44.696;10.358;2022-10-20T13:56:03;86.63;;;43.67;;
74523;SDS011;63074;44.696;10.358;2022-10-20T13:58:32;93.15;;;49.10;;
74523;SDS011;63074;44.696;10.358;2022-10-20T14:00:59;83.88;;;43.38;;
74523;SDS011;63074;44.696;10.358;2022-10-20T14:03:25;87.90;;;46.03;;
74523;SDS011;63074;44.696;10.358;2022-10-20T14:05:51;85.53;;;47.00;;
74523;SDS011;63074;44.696;10.358;2022-10-20T14:08:18;85.15;;;46.88;;
74523;SDS011;63074;44.696;10.358;2022-10-20T14:10:50;84.57;;;42.83;;
74523;SDS011;63074;44.696;10.358;2022-10-20T14:13:20;83.97;;;43.42;;
74523;SDS011;63074;44.696;10.358;2022-10-20T14:15:51;89.53;;;46.80;;
74523;SDS011;63074;44.696;10.358;2022-10-20T14:18:23;92.05;;;46.88;;
74523;SDS011;63074;44.696;10.358;2022-10-20T14:21:04;87.88;;;47.72;;
74523;SDS011;63074;44.696;10.358;2022-10-20T14:23:33;83.07;;;44.65;;
74523;SDS011;63074;44.696;10.358;2022-10-20T14:28:31;83.55;;;45.08;;
74523;SDS011;63074;44.696;10.358;2022-10-20T14:30:59;89.30;;;45.33;;
74523;SDS011;63074;44.696;10.358;2022-10-20T14:33:25;81.30;;;45.30;;
74523;SDS011;63074;44.696;10.358;2022-10-20T14:35:53;81.93;;;44.58;;
74523;SDS011;63074;44.696;10.358;2022-10-20T14:38:22;81.72;;;42.42;;
74523;SDS011;63074;44.696;10.358;2022-10-20T14:40:55;81.15;;;44.55;;
74523;SDS011;63074;44.696;10.358;2022-10-20T14:43:36;84.05;;;44.58;;
74523;SDS011;63074;44.696;10.358;2022-10-20T14:46:05;83.95;;;44.90;;
74523;SDS011;63074;44.696;10.358;2022-10-20T14:48:34;78.45;;;40.55;;
74523;SDS011;63074;44.696;10.358;2022-10-20T14:51:25;78.90;;;41.70;;
74523;SDS011;63074;44.696;10.358;2022-10-20T14:54:19;84.60;;;45.03;;
74523;SDS011;63074;44.696;10.358;2022-10-20T14:59:24;85.60;;;42.60;;
74523;SDS011;63074;44.696;10.358;2022-10-20T15:02:02;81.50;;;40.97;;
74523;SDS011;63074;44.696;10.358;2022-10-20T15:04:41;83.70;;;46.78;;
74523;SDS011;63074;44.696;10.358;2022-10-20T15:07:18;84.88;;;42.05;;
74523;SDS011;63074;44.696;10.358;2022-10-20T15:12:22;84.50;;;43.75;;
74523;SDS011;63074;44.696;10.358;2022-10-20T15:14:52;84.10;;;45.15;;
74523;SDS011;63074;44.696;10.358;2022-10-20T15:23:12;82.20;;;44.13;;
74523;SDS011;63074;44.696;10.358;2022-10-20T15:28:39;84.30;;;43.60;;
74523;SDS011;63074;44.696;10.358;2022-10-20T15:33:36;79.53;;;41.70;;
74523;SDS011;63074;44.696;10.358;2022-10-20T15:36:02;82.20;;;44.30;;
74523;SDS011;63074;44.696;10.358;2022-10-20T15:38:27;84.63;;;41.72;;
74523;SDS011;63074;44.696;10.358;2022-10-20T15:40:54;85.43;;;46.15;;
74523;SDS011;63074;44.696;10.358;2022-10-20T15:43:19;92.20;;;47.38;;
74523;SDS011;63074;44.696;10.358;2022-10-20T15:45:46;85.80;;;45.53;;
74523;SDS011;63074;44.696;10.358;2022-10-20T15:48:17;82.95;;;42.38;;
74523;SDS011;63074;44.696;10.358;2022-10-20T15:50:43;83.93;;;45.45;;
74523;SDS011;63074;44.696;10.358;2022-10-20T15:53:09;82.50;;;44.33;;
74523;SDS011;63074;44.696;10.358;2022-10-20T15:55:37;85.15;;;45.47;;
74523;SDS011;63074;44.696;10.358;2022-10-20T15:58:05;87.70;;;41.85;;
74523;SDS011;63074;44.696;10.358;2022-10-20T16:00:30;85.70;;;46.47;;
74523;SDS011;63074;44.696;10.358;2022-10-20T16:02:56;85.20;;;42.42;;
74523;SDS011;63074;44.696;10.358;2022-10-20T16:05:23;81.88;;;43.28;;
74523;SDS011;63074;44.696;10.358;2022-10-20T16:07:52;87.07;;;41.92;;
74523;SDS011;63074;44.696;10.358;2022-10-20T16:10:19;85.43;;;42.70;;
74523;SDS011;63074;44.696;10.358;2022-10-20T16:12:46;84.15;;;41.78;;
74523;SDS011;63074;44.696;10.358;2022-10-20T16:15:12;80.13;;;39.47;;
74523;SDS011;63074;44.696;10.358;2022-10-20T16:17:38;85.97;;;40.90;;
74523;SDS011;63074;44.696;10.358;2022-10-20T16:20:03;90.40;;;45.47;;
74523;SDS011;63074;44.696;10.358;2022-10-20T16:22:31;85.57;;;45.65;;
74523;SDS011;63074;44.696;10.358;2022-10-20T16:24:57;83.18;;;40.85;;
74523;SDS011;63074;44.696;10.358;2022-10-20T16:27:25;86.38;;;41.10;;
74523;SDS011;63074;44.696;10.358;2022-10-20T16:29:51;88.82;;;42.75;;
74523;SDS011;63074;44.696;10.358;2022-10-20T16:32:17;94.55;;;43.40;;
74523;SDS011;63074;44.696;10.358;2022-10-20T16:34:42;86.93;;;43.05;;
74523;SDS011;63074;44.696;10.358;2022-10-20T16:37:08;85.03;;;45.20;;
74523;SDS011;63074;44.696;10.358;2022-10-20T16:39:33;91.45;;;45.67;;
74523;SDS011;63074;44.696;10.358;2022-10-20T16:41:59;90.22;;;46.63;;
74523;SDS011;63074;44.696;10.358;2022-10-20T16:44:26;91.88;;;47.55;;
74523;SDS011;63074;44.696;10.358;2022-10-20T16:46:52;97.32;;;47.53;;
74523;SDS011;63074;44.696;10.358;2022-10-20T16:49:17;92.65;;;49.60;;
74523;SDS011;63074;44.696;10.358;2022-10-20T16:51:42;89.25;;;42.17;;
74523;SDS011;63074;44.696;10.358;2022-10-20T16:54:08;90.20;;;45.60;;
74523;SDS011;63074;44.696;10.358;2022-10-20T16:56:33;89.50;;;44.35;;
74523;SDS011;63074;44.696;10.358;2022-10-20T16:58:59;87.88;;;45.50;;
74523;SDS011;63074;44.696;10.358;2022-10-20T17:01:25;86.25;;;42.20;;
74523;SDS011;63074;44.696;10.358;2022-10-20T17:03:51;87.22;;;46.95;;
74523;SDS011;63074;44.696;10.358;2022-10-20T17:06:18;92.70;;;45.90;;
74523;SDS011;63074;44.696;10.358;2022-10-20T17:08:45;89.90;;;43.90;;